Time;durP1;ratioP1;P1;durP2;ratioP2;P2;SDS_P1;SDS_P2;PMS_P1;PMS_P2;Temp;Humidity;BMP_temperature;BMP_pressure;BME280_temperature;BME280_humidity;BME280_pressure;Samples;Min_cycle;Max_cycle;Signal;HPM_P1;HPM_P2
2022/09/29 00:01:47;;;;;;;19.95;15.63;;;;;;;-142.57;100.00;68379.81;5038485;28;20570;-72
2022/09/29 00:04:12;;;;;;;20.15;15.88;;;;;;;-142.57;100.00;68379.81;5052627;28;20029;-72
2022/09/29 00:06:37;;;;;;;17.63;15.45;;;;;;;-142.57;100.00;68379.81;5037590;28;20480;-72
2022/09/29 00:09:03;;;;;;;17.33;15.32;;;;;;;-142.57;100.00;68379.81;5038024;28;20112;-71
2022/09/29 00:11:28;;;;;;;21.55;14.90;;;;;;;-142.57;100.00;68379.81;5048131;28;20029;-72
2022/09/29 00:13:54;;;;;;;18.88;15.18;;;;;;;-142.57;100.00;68379.81;5027829;28;20169;-72
2022/09/29 00:16:20;;;;;;;19.05;13.77;;;;;;;-142.57;100.00;68379.81;5035774;28;20098;-72
2022/09/29 00:18:45;;;;;;;15.05;13.50;;;;;;;-142.57;100.00;68379.81;5025215;28;20060;-73
2022/09/29 00:21:13;;;;;;;18.17;14.15;;;;;;;-142.57;100.00;68379.81;5033497;28;20052;-72
2022/09/29 00:23:39;;;;;;;20.75;14.65;;;;;;;-142.57;100.00;68379.81;5029430;28;20032;-72
2022/09/29 00:26:06;;;;;;;17.30;15.50;;;;;;;-142.57;100.00;68379.81;5022628;28;20029;-72
2022/09/29 00:28:33;;;;;;;21.05;15.95;;;;;;;-142.57;100.00;68379.81;5034238;28;20104;-71
2022/09/29 00:31:00;;;;;;;19.08;15.23;;;;;;;-142.57;100.00;68379.81;5037919;28;20024;-71
2022/09/29 00:33:27;;;;;;;21.23;16.10;;;;;;;-142.57;100.00;68379.81;5033159;28;20025;-70
2022/09/29 00:36:07;;;;;;;22.02;16.35;;;;;;;-142.57;100.00;68379.81;5051900;28;20037;-71
2022/09/29 00:38:34;;;;;;;20.33;15.55;;;;;;;-142.57;100.00;68379.81;5040982;28;20095;-71
2022/09/29 00:41:00;;;;;;;16.83;14.98;;;;;;;-142.57;100.00;68379.81;5028329;28;20057;-71
2022/09/29 00:43:57;;;;;;;18.40;14.65;;;;;;;-142.57;100.00;68379.81;5036643;28;20041;-71
2022/09/29 00:46:32;;;;;;;17.35;14.82;;;;;;;-142.57;100.00;68379.81;5027611;28;20049;-71
2022/09/29 00:49:05;;;;;;;18.40;14.25;;;;;;;-142.57;100.00;68379.81;5040362;28;20033;-70
2022/09/29 00:51:32;;;;;;;20.05;15.93;;;;;;;-142.57;100.00;68379.81;5032753;28;20555;-71
2022/09/29 00:53:58;;;;;;;19.38;15.52;;;;;;;-142.57;100.00;68379.81;5038776;28;20067;-71
2022/09/29 00:56:24;;;;;;;20.27;15.75;;;;;;;-142.57;100.00;68379.81;5037532;28;20170;-71
2022/09/29 00:58:53;;;;;;;18.10;14.27;;;;;;;-142.57;100.00;68379.81;5040516;28;20033;-71
2022/09/29 01:01:23;;;;;;;21.85;16.02;;;;;;;-142.57;100.00;68379.81;5043466;28;20124;-71
2022/09/29 01:03:50;;;;;;;19.23;15.15;;;;;;;-142.57;100.00;68379.81;5039656;28;20834;-72
2022/09/29 01:06:19;;;;;;;18.70;16.58;;;;;;;-142.57;100.00;68379.81;5039578;28;20033;-72
2022/09/29 01:08:51;;;;;;;19.05;15.48;;;;;;;-142.57;100.00;68379.81;5027896;28;20024;-72
2022/09/29 01:11:19;;;;;;;21.35;16.88;;;;;;;-142.57;100.00;68379.81;5039404;28;20486;-71
2022/09/29 01:13:44;;;;;;;17.10;15.40;;;;;;;-142.57;100.00;68379.81;5037741;28;20040;-71
2022/09/29 01:16:10;;;;;;;21.92;16.30;;;;;;;-142.57;100.00;68379.81;5021413;28;20026;-71
2022/09/29 01:18:35;;;;;;;19.17;16.58;;;;;;;-142.57;100.00;68379.81;5038291;28;20029;-72
2022/09/29 01:21:06;;;;;;;18.25;15.32;;;;;;;-142.57;100.00;68379.81;5051048;28;20028;-70
2022/09/29 01:23:46;;;;;;;17.95;15.70;;;;;;;-142.57;100.00;68379.81;5046941;28;20029;-71
2022/09/29 01:26:46;;;;;;;26.48;15.82;;;;;;;-142.57;100.00;68379.81;5051556;28;20086;-71
2022/09/29 01:29:41;;;;;;;20.40;16.48;;;;;;;-142.57;100.00;68379.81;5033909;28;20029;-71
2022/09/29 01:32:12;;;;;;;16.20;14.50;;;;;;;-142.57;100.00;68379.81;5040367;28;20040;-71
2022/09/29 01:34:40;;;;;;;20.02;15.95;;;;;;;-142.57;100.00;68379.81;5049202;28;20558;-71
2022/09/29 01:37:24;;;;;;;22.40;16.23;;;;;;;-142.57;100.00;68379.81;5050269;28;20045;-71
2022/09/29 01:39:56;;;;;;;21.50;17.38;;;;;;;-142.57;100.00;68379.81;5045300;28;20051;-71
2022/09/29 01:42:25;;;;;;;19.25;16.58;;;;;;;-142.57;100.00;68379.81;5040310;28;20021;-71
2022/09/29 01:45:04;;;;;;;19.75;15.48;;;;;;;-142.57;100.00;68379.81;5047307;28;20037;-71
2022/09/29 01:47:51;;;;;;;18.73;15.13;;;;;;;-142.57;100.00;68379.81;5038515;28;20100;-70
2022/09/29 01:50:20;;;;;;;20.60;16.73;;;;;;;-142.57;100.00;68379.81;5038364;28;20555;-72
2022/09/29 01:52:50;;;;;;;20.02;16.23;;;;;;;-142.57;100.00;68379.81;5056546;28;20021;-72
2022/09/29 01:55:17;;;;;;;18.15;15.80;;;;;;;-142.57;100.00;68379.81;5035657;28;20021;-72
2022/09/29 01:57:49;;;;;;;21.98;16.58;;;;;;;-142.57;100.00;68379.81;5056453;28;20082;-71
2022/09/29 02:00:17;;;;;;;19.88;15.18;;;;;;;-142.57;100.00;68379.81;5076244;28;20033;-72
2022/09/29 02:02:46;;;;;;;19.85;14.70;;;;;;;-142.57;100.00;68379.81;5040734;28;20083;-70
2022/09/29 02:05:27;;;;;;;19.27;15.35;;;;;;;-142.57;100.00;68379.81;5073045;28;20041;-71
2022/09/29 02:07:53;;;;;;;19.35;15.02;;;;;;;-142.57;100.00;68379.81;5039835;28;20060;-71
2022/09/29 02:10:23;;;;;;;19.35;16.40;;;;;;;-142.57;100.00;68379.81;5040685;28;20143;-71
2022/09/29 02:12:51;;;;;;;19.50;16.65;;;;;;;-142.57;100.00;68379.81;5050990;28;20029;-72
2022/09/29 02:15:27;;;;;;;20.58;17.65;;;;;;;-142.57;100.00;68379.81;5040657;28;20040;-72
2022/09/29 02:17:53;;;;;;;23.50;18.00;;;;;;;-142.57;100.00;68379.81;5071450;28;20029;-71
2022/09/29 02:20:19;;;;;;;23.05;17.88;;;;;;;-142.57;100.00;68379.81;5039179;28;20094;-70
2022/09/29 02:22:45;;;;;;;25.63;17.25;;;;;;;-142.57;100.00;68379.81;5037056;28;20776;-70
2022/09/29 02:25:14;;;;;;;23.70;18.13;;;;;;;-142.57;100.00;68379.81;5070923;28;20025;-71
2022/09/29 02:27:39;;;;;;;25.42;18.50;;;;;;;-142.57;100.00;68379.81;5036078;28;20040;-71
2022/09/29 02:30:05;;;;;;;23.80;18.08;;;;;;;-142.57;100.00;68379.81;5033019;28;20052;-72
2022/09/29 02:32:32;;;;;;;20.02;17.27;;;;;;;-142.57;100.00;68379.81;5036382;28;20086;-72
2022/09/29 02:34:58;;;;;;;18.85;14.98;;;;;;;-142.57;100.00;68379.81;5067244;28;20036;-72
2022/09/29 02:37:45;;;;;;;19.45;16.50;;;;;;;-142.57;100.00;68379.81;5030921;28;20558;-72
2022/09/29 02:40:38;;;;;;;29.25;15.30;;;;;;;-142.57;100.00;68379.81;5036598;28;20039;-72
2022/09/29 02:43:05;;;;;;;22.98;17.63;;;;;;;-142.57;100.00;68379.81;5040947;28;20053;-72
2022/09/29 02:46:06;;;;;;;22.35;18.15;;;;;;;-142.57;100.00;68379.81;5041049;28;20098;-72
2022/09/29 02:48:50;;;;;;;25.58;17.88;;;;;;;-142.57;100.00;68379.81;5042358;28;20037;-72
2022/09/29 02:51:15;;;;;;;19.17;17.00;;;;;;;-142.57;100.00;68379.81;5041201;28;20033;-72
2022/09/29 02:54:14;;;;;;;20.02;17.92;;;;;;;-142.57;100.00;68379.81;5041987;28;20036;-72
2022/09/29 02:56:53;;;;;;;23.05;18.25;;;;;;;-142.57;100.00;68379.81;5037309;28;20079;-72
2022/09/29 02:59:41;;;;;;;23.83;17.85;;;;;;;-142.57;100.00;68379.81;5042552;28;20039;-72
2022/09/29 03:02:07;;;;;;;24.42;16.73;;;;;;;-142.57;100.00;68379.81;5039645;28;20582;-71
2022/09/29 03:04:32;;;;;;;26.25;18.58;;;;;;;-142.57;100.00;68379.81;5040195;28;20033;-71
2022/09/29 03:06:57;;;;;;;21.40;18.13;;;;;;;-142.57;100.00;68379.81;5040492;28;20548;-70
2022/09/29 03:09:23;;;;;;;20.92;17.35;;;;;;;-142.57;100.00;68379.81;5034857;28;20881;-71
2022/09/29 03:11:48;;;;;;;20.08;16.13;;;;;;;-142.57;100.00;68379.81;5048556;28;20108;-70
2022/09/29 03:14:13;;;;;;;19.98;16.65;;;;;;;-142.57;100.00;68379.81;5051664;28;20120;-70
2022/09/29 03:16:39;;;;;;;33.03;18.15;;;;;;;-142.57;100.00;68379.81;5044284;28;20130;-71
2022/09/29 03:19:04;;;;;;;22.77;17.27;;;;;;;-142.57;100.00;68379.81;5040651;28;20029;-71
2022/09/29 03:21:30;;;;;;;21.48;17.63;;;;;;;-142.57;100.00;68379.81;5072833;28;20163;-71
2022/09/29 03:23:56;;;;;;;20.27;16.50;;;;;;;-142.57;100.00;68379.81;5024970;28;20180;-71
2022/09/29 03:26:22;;;;;;;24.48;16.35;;;;;;;-142.57;100.00;68379.81;5039093;28;20028;-71
2022/09/29 03:28:51;;;;;;;20.08;15.60;;;;;;;-142.57;100.00;68379.81;5040195;28;20063;-72
2022/09/29 03:31:17;;;;;;;20.13;16.60;;;;;;;-142.57;100.00;68379.81;5039349;28;20129;-71
2022/09/29 03:33:42;;;;;;;21.35;17.20;;;;;;;-142.57;100.00;68379.81;5040121;28;20471;-71
2022/09/29 03:36:08;;;;;;;24.05;16.50;;;;;;;-142.57;100.00;68379.81;5039695;28;20148;-71
2022/09/29 03:38:34;;;;;;;22.00;17.92;;;;;;;-142.57;100.00;68379.81;5038332;28;20036;-72
2022/09/29 03:41:00;;;;;;;19.02;15.95;;;;;;;-142.57;100.00;68379.81;5025002;28;20033;-72
2022/09/29 03:43:25;;;;;;;27.30;18.38;;;;;;;-142.57;100.00;68379.81;5041387;28;20036;-72
2022/09/29 03:45:53;;;;;;;31.63;18.67;;;;;;;-142.57;100.00;68379.81;5042034;28;20561;-72
2022/09/29 03:48:19;;;;;;;27.20;18.70;;;;;;;-142.57;100.00;68379.81;5027419;28;20033;-72
2022/09/29 03:50:45;;;;;;;22.08;18.33;;;;;;;-142.57;100.00;68379.81;5038892;28;20041;-72
2022/09/29 03:53:11;;;;;;;22.60;18.13;;;;;;;-142.57;100.00;68379.81;5021244;28;20025;-72
2022/09/29 03:55:36;;;;;;;22.38;17.80;;;;;;;-142.57;100.00;68379.81;5032657;28;20048;-71
2022/09/29 03:58:02;;;;;;;20.23;17.65;;;;;;;-142.57;100.00;68379.81;5028562;28;20653;-71
2022/09/29 04:00:27;;;;;;;22.73;18.48;;;;;;;-142.57;100.00;68379.81;5046881;28;20799;-71
2022/09/29 04:02:53;;;;;;;19.63;17.52;;;;;;;-142.57;100.00;68379.81;5042315;28;20048;-71
2022/09/29 04:05:19;;;;;;;24.58;18.27;;;;;;;-142.57;100.00;68379.81;5031932;28;20460;-71
2022/09/29 04:07:44;;;;;;;22.88;16.58;;;;;;;-142.57;100.00;68379.81;5045196;28;20036;-72
2022/09/29 04:10:09;;;;;;;23.63;16.73;;;;;;;-142.57;100.00;68379.81;5048074;28;20501;-72
2022/09/29 04:12:35;;;;;;;22.23;17.40;;;;;;;-142.57;100.00;68379.81;5040090;28;20020;-72
2022/09/29 04:15:00;;;;;;;20.45;17.38;;;;;;;-142.57;100.00;68379.81;5040129;28;20029;-72
2022/09/29 04:17:26;;;;;;;18.75;16.73;;;;;;;-142.57;100.00;68379.81;5025837;28;20040;-72
2022/09/29 04:19:51;;;;;;;26.02;17.95;;;;;;;-142.57;100.00;68379.81;5042805;28;20033;-71
2022/09/29 04:22:17;;;;;;;20.98;16.42;;;;;;;-142.57;100.00;68379.81;5035829;28;20096;-72
2022/09/29 04:24:43;;;;;;;22.60;17.33;;;;;;;-142.57;100.00;68379.81;5043248;28;20399;-71
2022/09/29 04:27:08;;;;;;;21.08;15.38;;;;;;;-142.57;100.00;68379.81;5041900;28;20052;-70
2022/09/29 04:29:34;;;;;;;22.40;16.52;;;;;;;-142.57;100.00;68379.81;5043794;28;20125;-71
2022/09/29 04:31:59;;;;;;;21.17;16.35;;;;;;;-142.57;100.00;68379.81;5067677;28;20159;-71
2022/09/29 04:34:25;;;;;;;21.60;17.48;;;;;;;-142.57;100.00;68379.81;5033574;28;20959;-71
2022/09/29 04:36:50;;;;;;;20.13;15.85;;;;;;;-142.57;100.00;68379.81;5042734;28;20036;-71
2022/09/29 04:39:15;;;;;;;22.85;17.25;;;;;;;-142.57;100.00;68379.81;5040123;28;20025;-72
2022/09/29 04:41:41;;;;;;;20.90;16.48;;;;;;;-142.57;100.00;68379.81;5041281;28;20179;-69
2022/09/29 04:44:06;;;;;;;22.50;16.85;;;;;;;-142.57;100.00;68379.81;5028891;28;20132;-70
2022/09/29 04:46:31;;;;;;;22.98;16.35;;;;;;;-142.57;100.00;68379.81;5038528;28;20658;-70
2022/09/29 04:48:57;;;;;;;23.17;15.40;;;;;;;-142.57;100.00;68379.81;5034946;28;20724;-70
2022/09/29 04:51:22;;;;;;;21.95;15.60;;;;;;;-142.57;100.00;68379.81;5042943;28;20157;-70
2022/09/29 04:53:48;;;;;;;19.17;15.50;;;;;;;-142.57;100.00;68379.81;5039482;28;20033;-70
2022/09/29 04:56:13;;;;;;;23.48;16.73;;;;;;;-142.57;100.00;68379.81;5038514;28;20356;-69
2022/09/29 04:58:38;;;;;;;20.35;16.30;;;;;;;-142.57;100.00;68379.81;5040853;28;20048;-69
2022/09/29 05:01:09;;;;;;;18.73;15.95;;;;;;;-142.57;100.00;68379.81;5074116;28;20116;-71
2022/09/29 05:03:34;;;;;;;18.73;15.43;;;;;;;-142.57;100.00;68379.81;5074271;28;20036;-70
2022/09/29 05:06:00;;;;;;;18.48;15.32;;;;;;;-142.57;100.00;68379.81;5073619;28;20032;-68
2022/09/29 05:08:25;;;;;;;19.13;15.43;;;;;;;-142.57;100.00;68379.81;5041648;28;20029;-68
2022/09/29 05:10:51;;;;;;;21.20;16.00;;;;;;;-142.57;100.00;68379.81;5060282;28;20789;-69
2022/09/29 05:13:16;;;;;;;18.73;15.23;;;;;;;-142.57;100.00;68379.81;5042747;28;20440;-69
2022/09/29 05:15:41;;;;;;;18.25;15.45;;;;;;;-142.57;100.00;68379.81;5042266;28;20033;-70
2022/09/29 05:18:07;;;;;;;19.38;15.45;;;;;;;-142.57;100.00;68379.81;5027415;28;20044;-70
2022/09/29 05:20:32;;;;;;;17.63;15.15;;;;;;;-142.57;100.00;68379.81;5047722;28;20987;-70
2022/09/29 05:22:58;;;;;;;21.48;16.60;;;;;;;-142.57;100.00;68379.81;5051156;28;20895;-70
2022/09/29 05:25:26;;;;;;;34.83;17.45;;;;;;;-142.57;100.00;68379.81;5034941;28;20025;-70
2022/09/29 05:27:51;;;;;;;19.80;14.25;;;;;;;-142.57;100.00;68379.81;5057232;28;20376;-70
2022/09/29 05:30:16;;;;;;;18.88;14.88;;;;;;;-142.57;100.00;68379.81;5045619;28;20035;-72
2022/09/29 05:32:43;;;;;;;19.15;13.68;;;;;;;-142.57;100.00;68379.81;5041400;28;20033;-71
2022/09/29 05:35:08;;;;;;;16.92;14.13;;;;;;;-142.57;100.00;68379.81;5041655;28;20040;-72
2022/09/29 05:37:34;;;;;;;20.73;14.57;;;;;;;-142.57;100.00;68379.81;5038287;28;20080;-72
2022/09/29 05:39:59;;;;;;;20.73;15.07;;;;;;;-142.57;100.00;68379.81;5038811;28;20044;-72
2022/09/29 05:42:26;;;;;;;18.30;14.73;;;;;;;-142.57;100.00;68379.81;5042556;28;20098;-73
2022/09/29 05:44:52;;;;;;;17.65;13.57;;;;;;;-142.57;100.00;68379.81;5040220;28;20043;-72
2022/09/29 05:47:17;;;;;;;19.05;14.50;;;;;;;-142.57;100.00;68379.81;5031369;28;20025;-74
2022/09/29 05:49:43;;;;;;;23.50;15.57;;;;;;;-142.57;100.00;68379.81;5026829;28;20033;-73
2022/09/29 05:52:08;;;;;;;16.73;12.02;;;;;;;-142.57;100.00;68379.81;5039402;28;20395;-73
2022/09/29 05:54:33;;;;;;;17.27;13.55;;;;;;;-142.57;100.00;68379.81;5068257;28;20040;-69
2022/09/29 05:56:59;;;;;;;16.10;13.23;;;;;;;-142.57;100.00;68379.81;5055186;28;20063;-70
2022/09/29 05:59:24;;;;;;;20.98;14.25;;;;;;;-142.57;100.00;68379.81;5052876;28;20049;-72
2022/09/29 06:01:49;;;;;;;16.48;12.75;;;;;;;-142.57;100.00;68379.81;5053355;28;20037;-71
2022/09/29 06:04:16;;;;;;;18.38;13.65;;;;;;;-142.57;100.00;68379.81;5068077;28;20360;-70
2022/09/29 06:06:42;;;;;;;17.58;14.68;;;;;;;-142.57;100.00;68379.81;5052397;28;20021;-71
2022/09/29 06:09:08;;;;;;;19.48;15.07;;;;;;;-142.57;100.00;68379.81;5052945;28;20028;-71
2022/09/29 06:11:33;;;;;;;17.05;13.02;;;;;;;-142.57;100.00;68379.81;5052087;28;20035;-71
2022/09/29 06:14:00;;;;;;;20.70;13.52;;;;;;;-142.57;100.00;68379.81;5052944;28;20845;-70
2022/09/29 06:16:28;;;;;;;18.17;14.43;;;;;;;-142.57;100.00;68379.81;5048212;28;20032;-71
2022/09/29 06:18:54;;;;;;;16.92;14.00;;;;;;;-142.57;100.00;68379.81;5069020;28;20028;-70
2022/09/29 06:21:22;;;;;;;18.85;14.77;;;;;;;-142.57;100.00;68379.81;5068569;28;20039;-70
2022/09/29 06:23:48;;;;;;;18.90;14.68;;;;;;;-142.57;100.00;68379.81;5043489;28;20487;-71
2022/09/29 06:26:16;;;;;;;16.85;14.38;;;;;;;-142.57;100.00;68379.81;5052419;28;20032;-72
2022/09/29 06:28:41;;;;;;;16.80;14.15;;;;;;;-142.57;100.00;68379.81;5047267;28;20032;-71
2022/09/29 06:31:11;;;;;;;20.38;14.18;;;;;;;-142.57;100.00;68379.81;5061666;28;20376;-70
2022/09/29 06:33:36;;;;;;;16.27;13.68;;;;;;;-142.57;100.00;68379.81;5067713;28;20503;-70
2022/09/29 06:38:50;;;;;;;21.17;14.35;;;;;;;-142.57;100.00;68379.81;5041892;28;20067;-71
2022/09/29 06:41:15;;;;;;;17.13;14.25;;;;;;;-142.57;100.00;68379.81;5063277;28;20025;-72
2022/09/29 06:43:41;;;;;;;15.05;13.48;;;;;;;-142.57;100.00;68379.81;5067512;28;20024;-69
2022/09/29 06:46:06;;;;;;;16.67;14.20;;;;;;;-142.57;100.00;68379.81;5048756;28;20067;-73
2022/09/29 06:48:32;;;;;;;21.00;15.35;;;;;;;-142.57;100.00;68379.81;5052363;28;20055;-73
2022/09/29 06:50:57;;;;;;;23.70;15.07;;;;;;;-142.57;100.00;68379.81;5051145;28;20025;-73
2022/09/29 06:53:23;;;;;;;16.40;14.70;;;;;;;-142.57;100.00;68379.81;5092948;28;20028;-73
2022/09/29 06:55:59;;;;;;;22.05;15.38;;;;;;;-142.57;100.00;68379.81;5051798;28;20112;-73
2022/09/29 06:58:25;;;;;;;22.23;14.93;;;;;;;-142.57;100.00;68379.81;5050722;28;20369;-73
2022/09/29 07:00:50;;;;;;;16.60;14.18;;;;;;;-142.57;100.00;68379.81;5034251;28;20116;-73
2022/09/29 07:03:16;;;;;;;18.05;15.02;;;;;;;-142.57;100.00;68379.81;5052543;28;20025;-73
2022/09/29 07:05:42;;;;;;;19.52;15.55;;;;;;;-142.57;100.00;68379.81;5051328;28;20055;-73
2022/09/29 07:08:08;;;;;;;23.08;14.38;;;;;;;-142.57;100.00;68379.81;5043547;28;20040;-73
2022/09/29 07:10:34;;;;;;;17.40;15.05;;;;;;;-142.57;100.00;68379.81;5050500;28;20024;-73
2022/09/29 07:12:59;;;;;;;16.90;15.10;;;;;;;-142.57;100.00;68379.81;5052761;28;20395;-73
2022/09/29 07:15:30;;;;;;;19.48;15.95;;;;;;;-142.57;100.00;68379.81;5051803;28;20151;-73
2022/09/29 07:18:00;;;;;;;19.05;17.00;;;;;;;-142.57;100.00;68379.81;5049125;28;20029;-73
2022/09/29 07:20:27;;;;;;;21.98;16.20;;;;;;;-142.57;100.00;68379.81;5038918;28;20036;-71
2022/09/29 07:22:52;;;;;;;24.67;16.38;;;;;;;-142.57;100.00;68379.81;5077860;28;20466;-72
2022/09/29 07:25:18;;;;;;;21.70;18.70;;;;;;;-142.57;100.00;68379.81;5050176;28;20025;-71
2022/09/29 07:27:43;;;;;;;21.23;17.73;;;;;;;-142.57;100.00;68379.81;5051380;28;20032;-71
2022/09/29 07:30:09;;;;;;;25.85;16.55;;;;;;;-142.57;100.00;68379.81;5060959;28;20164;-73
2022/09/29 07:32:35;;;;;;;21.35;16.70;;;;;;;-142.57;100.00;68379.81;5037239;28;20032;-73
2022/09/29 07:35:00;;;;;;;17.17;15.45;;;;;;;-142.57;100.00;68379.81;5049766;28;20041;-73
2022/09/29 07:37:26;;;;;;;17.70;15.43;;;;;;;-142.57;100.00;68379.81;5047356;28;20097;-73
2022/09/29 07:39:52;;;;;;;20.98;16.63;;;;;;;-142.57;100.00;68379.81;5043979;28;20110;-73
2022/09/29 07:42:18;;;;;;;25.98;16.83;;;;;;;-142.57;100.00;68379.81;5042410;28;20024;-73
2022/09/29 07:44:44;;;;;;;17.15;15.05;;;;;;;-142.57;100.00;68379.81;5072470;28;20445;-73
2022/09/29 07:47:09;;;;;;;18.08;15.23;;;;;;;-142.57;100.00;68379.81;5044773;28;20033;-73
2022/09/29 07:49:34;;;;;;;19.13;15.73;;;;;;;-142.57;100.00;68379.81;5044441;28;20036;-73
2022/09/29 07:52:00;;;;;;;17.45;14.95;;;;;;;-142.57;100.00;68379.81;5056093;28;20048;-73
2022/09/29 07:54:25;;;;;;;17.58;15.27;;;;;;;-142.57;100.00;68379.81;5041391;28;20033;-72
2022/09/29 07:56:51;;;;;;;18.63;14.25;;;;;;;-142.57;100.00;68379.81;5029993;28;20658;-72
2022/09/29 07:59:16;;;;;;;18.52;14.55;;;;;;;-142.57;100.00;68379.81;5042177;28;20029;-73
2022/09/29 08:01:42;;;;;;;22.70;15.82;;;;;;;-142.57;100.00;68379.81;5044716;28;20033;-73
2022/09/29 08:04:07;;;;;;;17.08;15.00;;;;;;;-142.57;100.00;68379.81;5044364;28;20091;-73
2022/09/29 08:06:33;;;;;;;20.75;14.73;;;;;;;-142.57;100.00;68379.81;5026631;28;20032;-73
2022/09/29 08:09:00;;;;;;;24.80;15.60;;;;;;;-142.57;100.00;68379.81;5025705;28;20067;-73
2022/09/29 08:11:27;;;;;;;16.50;14.05;;;;;;;-142.57;100.00;68379.81;5046453;28;20398;-72
2022/09/29 08:13:52;;;;;;;16.85;13.82;;;;;;;-142.57;100.00;68379.81;5040389;28;20033;-73
2022/09/29 08:16:18;;;;;;;16.98;14.18;;;;;;;-142.57;100.00;68379.81;5076350;28;20032;-73
2022/09/29 08:18:43;;;;;;;14.45;12.95;;;;;;;-142.57;100.00;68379.81;5043340;28;20021;-73
2022/09/29 08:21:10;;;;;;;21.85;14.40;;;;;;;-142.57;100.00;68379.81;5040780;28;20036;-73
2022/09/29 08:23:38;;;;;;;21.88;15.10;;;;;;;-142.57;100.00;68379.81;5040240;28;20037;-73
2022/09/29 08:26:08;;;;;;;21.77;15.32;;;;;;;-142.57;100.00;68379.81;5047426;28;20036;-73
2022/09/29 08:28:35;;;;;;;20.42;14.98;;;;;;;-142.57;100.00;68379.81;5038953;28;20036;-72
2022/09/29 08:31:02;;;;;;;21.20;15.98;;;;;;;-142.57;100.00;68379.81;5038491;28;20495;-72
2022/09/29 08:33:27;;;;;;;16.42;13.10;;;;;;;-142.57;100.00;68379.81;5042764;28;20060;-72
2022/09/29 08:35:57;;;;;;;19.73;15.27;;;;;;;-142.57;100.00;68379.81;5038850;28;20135;-72
2022/09/29 08:38:23;;;;;;;19.90;13.70;;;;;;;-142.57;100.00;68379.81;5033962;28;20032;-73
2022/09/29 08:40:49;;;;;;;23.42;13.25;;;;;;;-142.57;100.00;68379.81;5018741;28;20033;-71
2022/09/29 08:43:22;;;;;;;19.13;13.50;;;;;;;-142.57;100.00;68379.81;5010358;28;20064;-73
2022/09/29 08:46:00;;;;;;;18.43;14.00;;;;;;;-142.57;100.00;68379.81;5012215;28;20017;-73
2022/09/29 08:48:27;;;;;;;16.40;13.15;;;;;;;-142.57;100.00;68379.81;5012312;28;20039;-73
2022/09/29 08:51:04;;;;;;;17.67;11.75;;;;;;;-142.57;100.00;68379.81;5042779;28;20032;-73
2022/09/29 08:53:32;;;;;;;13.63;10.00;;;;;;;-142.57;100.00;68379.81;5025275;28;20033;-72
2022/09/29 08:56:01;;;;;;;14.00;11.02;;;;;;;-142.57;100.00;68379.81;5010850;28;20036;-72
2022/09/29 08:58:27;;;;;;;14.32;9.20;;;;;;;-142.57;100.00;68379.81;5009357;28;20135;-72
2022/09/29 09:01:11;;;;;;;14.40;9.00;;;;;;;-142.57;100.00;68379.81;5009643;28;20032;-72
2022/09/29 09:04:10;;;;;;;17.73;9.45;;;;;;;-142.57;100.00;68379.81;5013588;28;20079;-72
2022/09/29 09:07:04;;;;;;;10.20;8.05;;;;;;;-142.57;100.00;68379.81;5010743;28;20032;-72
2022/09/29 09:09:55;;;;;;;13.90;9.35;;;;;;;-142.57;100.00;68379.81;5027599;28;20033;-72
2022/09/29 09:12:30;;;;;;;14.93;8.93;;;;;;;-142.57;100.00;68379.81;5018122;28;20034;-73
2022/09/29 09:15:07;;;;;;;15.18;8.85;;;;;;;-142.57;100.00;68379.81;5011228;28;20029;-73
2022/09/29 09:17:54;;;;;;;14.77;8.52;;;;;;;-142.57;100.00;68379.81;5015080;28;20048;-73
2022/09/29 09:20:33;;;;;;;14.52;8.55;;;;;;;-142.57;100.00;68379.81;5002053;28;20908;-73
2022/09/29 09:23:20;;;;;;;11.55;7.05;;;;;;;-142.57;100.00;68379.81;5007052;28;20034;-72
2022/09/29 09:25:50;;;;;;;17.88;7.47;;;;;;;-142.57;100.00;68379.81;5008812;28;20895;-73
2022/09/29 09:28:18;;;;;;;12.00;7.80;;;;;;;-142.57;100.00;68379.81;5013159;28;20353;-73
2022/09/29 09:31:00;;;;;;;10.57;6.85;;;;;;;-142.57;100.00;68379.81;5017875;28;20037;-73
2022/09/29 09:33:43;;;;;;;12.48;6.40;;;;;;;-142.57;100.00;68379.81;5011684;28;20037;-72
2022/09/29 09:36:32;;;;;;;11.43;5.65;;;;;;;-142.57;100.00;68379.81;5012914;28;20061;-73
2022/09/29 09:39:02;;;;;;;9.98;5.72;;;;;;;-142.57;100.00;68379.81;5016851;28;20029;-73
2022/09/29 09:41:28;;;;;;;7.90;5.10;;;;;;;-142.57;100.00;68379.81;4999398;28;20022;-73
2022/09/29 09:43:58;;;;;;;12.30;5.20;;;;;;;-142.57;100.00;68379.81;5016005;28;20025;-74
2022/09/29 09:46:29;;;;;;;12.27;4.47;;;;;;;-142.57;100.00;68379.81;4994340;28;20028;-73
2022/09/29 09:49:34;;;;;;;6.22;4.35;;;;;;;-142.57;100.00;68379.81;5011199;28;20068;-73
2022/09/29 09:52:25;;;;;;;8.02;4.75;;;;;;;-142.57;100.00;68379.81;5010635;28;21226;-74
2022/09/29 09:54:52;;;;;;;6.93;4.13;;;;;;;-142.57;100.00;68379.81;4985591;28;20041;-74
2022/09/29 09:57:43;;;;;;;7.82;4.18;;;;;;;-142.57;100.00;68379.81;5002942;28;20487;-74
2022/09/29 10:00:20;;;;;;;5.95;3.67;;;;;;;-142.57;100.00;68379.81;5009788;28;20065;-75
2022/09/29 10:02:48;;;;;;;14.95;4.50;;;;;;;-142.57;100.00;68379.81;5011589;28;20029;-74
2022/09/29 10:05:37;;;;;;;15.45;4.88;;;;;;;-142.57;100.00;68379.81;5009549;28;20111;-74
2022/09/29 10:08:04;;;;;;;6.20;3.67;;;;;;;-142.57;100.00;68379.81;4996923;28;20029;-73
2022/09/29 10:10:30;;;;;;;9.07;3.47;;;;;;;-142.57;100.00;68379.81;5021737;28;20039;-75
2022/09/29 10:13:04;;;;;;;7.85;3.22;;;;;;;-142.57;100.00;68379.81;5026615;28;20781;-74
2022/09/29 10:15:48;;;;;;;;;;;;;;;-142.57;100.00;68379.81;5011329;28;20033;-74
2022/09/29 10:18:17;;;;;;;7.40;4.45;;;;;;;-142.57;100.00;68379.81;5010719;28;19924;-74
2022/09/29 10:20:43;;;;;;;10.23;4.60;;;;;;;-142.57;100.00;68379.81;4993304;28;20025;-75
2022/09/29 10:23:32;;;;;;;9.15;4.63;;;;;;;-142.57;100.00;68379.81;5010156;28;20091;-75
2022/09/29 10:26:14;;;;;;;7.22;3.85;;;;;;;-142.57;100.00;68379.81;5009260;28;20025;-75
2022/09/29 10:29:22;;;;;;;4.78;3.35;;;;;;;-142.57;100.00;68379.81;5009273;28;20786;-74
2022/09/29 10:32:35;;;;;;;9.40;3.75;;;;;;;-142.57;100.00;68379.81;5011937;28;20033;-75
2022/09/29 10:35:23;;;;;;;8.52;4.03;;;;;;;-142.57;100.00;68379.81;5036674;28;20052;-74
2022/09/29 10:38:22;;;;;;;5.97;3.53;;;;;;;-142.57;100.00;68379.81;5009671;28;20880;-74
2022/09/29 10:41:05;;;;;;;5.82;2.72;;;;;;;-142.57;100.00;68379.81;5004079;28;20087;-74
2022/09/29 10:43:42;;;;;;;5.55;2.38;;;;;;;-142.57;100.00;68379.81;5024959;28;20191;-74
2022/09/29 10:46:35;;;;;;;4.30;2.33;;;;;;;-142.57;100.00;68379.81;4990678;28;20107;-74
2022/09/29 10:49:18;;;;;;;5.13;2.35;;;;;;;-142.57;100.00;68379.81;5029253;28;20131;-74
2022/09/29 10:52:20;;;;;;;9.40;2.63;;;;;;;-142.57;100.00;68379.81;5008436;28;20025;-74
2022/09/29 10:54:56;;;;;;;3.58;1.83;;;;;;;-142.57;100.00;68379.81;5042313;28;20036;-74
2022/09/29 10:57:25;;;;;;;5.72;2.45;;;;;;;-142.57;100.00;68379.81;4992429;28;20033;-74
2022/09/29 10:59:52;;;;;;;8.65;2.47;;;;;;;-142.57;100.00;68379.81;5009211;28;20132;-74
2022/09/29 11:02:29;;;;;;;3.92;2.05;;;;;;;-142.57;100.00;68379.81;4989157;28;20974;-74
2022/09/29 11:04:57;;;;;;;4.93;2.22;;;;;;;-142.57;100.00;68379.81;4991072;28;20037;-74
2022/09/29 11:07:23;;;;;;;5.88;2.22;;;;;;;-142.57;100.00;68379.81;5013316;28;20079;-74
2022/09/29 11:09:53;;;;;;;10.70;2.08;;;;;;;-142.57;100.00;68379.81;5025064;28;20903;-74
2022/09/29 11:12:38;;;;;;;5.25;2.00;;;;;;;-142.57;100.00;68379.81;5006003;28;20028;-75
2022/09/29 11:15:23;;;;;;;;;;;;;;;-142.57;100.00;68379.81;4993573;28;20033;-74